sensor_id;sensor_type;location;lat;lon;timestamp;pressure;altitude;pressure_sealevel;temperature;humidity
62011;BME280;47967;51.756;10.174;2023-04-15T04:01:06;98905.69;;;7.14;85.87
62011;BME280;47967;51.756;10.174;2023-04-15T04:05:09;98892.53;;;7.19;86.12
62011;BME280;47967;51.756;10.174;2023-04-15T04:09:11;98890.59;;;7.13;86.16
62011;BME280;47967;51.756;10.174;2023-04-15T04:13:14;98897.81;;;7.05;86.49
62011;BME280;47967;51.756;10.174;2023-04-15T04:17:18;98900.91;;;7.09;86.57
62011;BME280;47967;51.756;10.174;2023-04-15T04:21:21;98886.03;;;7.07;86.83
62011;BME280;47967;51.756;10.174;2023-04-15T04:25:24;98893.13;;;7.21;86.89
62011;BME280;47967;51.756;10.174;2023-04-15T04:29:27;98899.44;;;7.07;87.02
62011;BME280;47967;51.756;10.174;2023-04-15T04:33:31;98898.22;;;7.09;87.61
62011;BME280;47967;51.756;10.174;2023-04-15T04:37:34;98900.44;;;6.99;88.00
62011;BME280;47967;51.756;10.174;2023-04-15T04:41:37;98886.03;;;7.00;88.39
62011;BME280;47967;51.756;10.174;2023-04-15T04:45:39;98888.06;;;6.98;88.65
62011;BME280;47967;51.756;10.174;2023-04-15T04:49:43;98892.38;;;6.92;89.04
62011;BME280;47967;51.756;10.174;2023-04-15T04:53:46;98879.63;;;7.01;89.10
62011;BME280;47967;51.756;10.174;2023-04-15T04:57:48;98899.19;;;6.95;89.24
62011;BME280;47967;51.756;10.174;2023-04-15T05:01:51;98891.19;;;7.01;89.58
62011;BME280;47967;51.756;10.174;2023-04-15T05:05:55;98891.81;;;7.03;89.28
62011;BME280;47967;51.756;10.174;2023-04-15T05:09:58;98888.66;;;6.93;89.44
62011;BME280;47967;51.756;10.174;2023-04-15T05:14:00;98892.63;;;6.97;89.52
62011;BME280;47967;51.756;10.174;2023-04-15T05:18:03;98897.19;;;7.03;89.46
62011;BME280;47967;51.756;10.174;2023-04-15T05:22:07;98889.53;;;7.00;89.48
62011;BME280;47967;51.756;10.174;2023-04-15T05:26:10;98901.91;;;7.01;89.65
62011;BME280;47967;51.756;10.174;2023-04-15T05:30:13;98900.88;;;7.02;89.61
62011;BME280;47967;51.756;10.174;2023-04-15T05:34:16;98901.09;;;7.01;89.47
62011;BME280;47967;51.756;10.174;2023-04-15T05:38:20;98899.44;;;7.07;89.73
62011;BME280;47967;51.756;10.174;2023-04-15T05:42:22;98901.75;;;7.10;89.29
62011;BME280;47967;51.756;10.174;2023-04-15T05:46:25;98901.16;;;7.14;89.48
62011;BME280;47967;51.756;10.174;2023-04-15T05:50:28;98900.56;;;7.19;89.76
62011;BME280;47967;51.756;10.174;2023-04-15T05:54:32;98899.69;;;7.12;90.33
62011;BME280;47967;51.756;10.174;2023-04-15T05:58:34;98896.97;;;6.98;91.05
62011;BME280;47967;51.756;10.174;2023-04-15T06:02:37;98906.88;;;7.04;91.70
62011;BME280;47967;51.756;10.174;2023-04-15T06:06:40;98911.75;;;6.94;91.81
62011;BME280;47967;51.756;10.174;2023-04-15T06:10:44;98899.44;;;7.07;91.83
62011;BME280;47967;51.756;10.174;2023-04-15T06:14:47;98910.66;;;7.17;91.66
62011;BME280;47967;51.756;10.174;2023-04-15T06:18:49;98905.25;;;7.10;91.51
62011;BME280;47967;51.756;10.174;2023-04-15T06:22:52;98905.94;;;7.19;90.98
62011;BME280;47967;51.756;10.174;2023-04-15T06:26:55;98901.59;;;7.25;90.83
62011;BME280;47967;51.756;10.174;2023-04-15T06:30:58;98899.56;;;7.33;90.55
62011;BME280;47967;51.756;10.174;2023-04-15T06:35:02;98915.44;;;7.21;90.25
62011;BME280;47967;51.756;10.174;2023-04-15T06:39:04;98911.53;;;7.31;90.70
62011;BME280;47967;51.756;10.174;2023-04-15T06:43:08;98917.09;;;7.29;90.45
62011;BME280;47967;51.756;10.174;2023-04-15T06:47:11;98909.84;;;7.23;90.38
62011;BME280;47967;51.756;10.174;2023-04-15T06:51:15;98910.09;;;7.28;90.54
62011;BME280;47967;51.756;10.174;2023-04-15T06:55:17;98911.53;;;7.24;90.29
62011;BME280;47967;51.756;10.174;2023-04-15T06:59:21;98912.13;;;7.26;90.31
62011;BME280;47967;51.756;10.174;2023-04-15T07:03:24;98910.34;;;7.40;90.49
62011;BME280;47967;51.756;10.174;2023-04-15T07:07:27;98903.31;;;7.39;90.16
62011;BME280;47967;51.756;10.174;2023-04-15T07:11:29;98905.13;;;7.32;90.21
62011;BME280;47967;51.756;10.174;2023-04-15T07:15:33;98916.47;;;7.27;90.52
62011;BME280;47967;51.756;10.174;2023-04-15T07:19:36;98921.66;;;7.29;90.86
62011;BME280;47967;51.756;10.174;2023-04-15T07:23:39;98924.09;;;7.24;91.16
62011;BME280;47967;51.756;10.174;2023-04-15T07:27:42;98919.34;;;7.19;91.62
62011;BME280;47967;51.756;10.174;2023-04-15T07:31:45;98921.22;;;7.25;91.80
62011;BME280;47967;51.756;10.174;2023-04-15T07:35:48;98921.22;;;7.25;92.08
62011;BME280;47967;51.756;10.174;2023-04-15T07:39:50;98937.06;;;7.20;92.20
62011;BME280;47967;51.756;10.174;2023-04-15T07:43:53;98944.16;;;7.28;92.34
62011;BME280;47967;51.756;10.174;2023-04-15T07:47:57;98957.63;;;7.41;92.08
62011;BME280;47967;51.756;10.174;2023-04-15T07:52:00;98952.69;;;7.45;91.80
62011;BME280;47967;51.756;10.174;2023-04-15T07:56:03;98944.28;;;7.61;91.69
62011;BME280;47967;51.756;10.174;2023-04-15T08:00:07;98945.75;;;7.71;91.28
62011;BME280;47967;51.756;10.174;2023-04-15T08:04:17;98941.84;;;7.80;90.84
62011;BME280;47967;51.756;10.174;2023-04-15T08:08:19;98955.09;;;7.81;90.49
62011;BME280;47967;51.756;10.174;2023-04-15T08:12:22;98943.50;;;7.81;90.25
62011;BME280;47967;51.756;10.174;2023-04-15T08:16:25;98950.78;;;7.94;89.79
62011;BME280;47967;51.756;10.174;2023-04-15T08:20:30;98948.06;;;7.87;89.52
62011;BME280;47967;51.756;10.174;2023-04-15T08:24:32;98946.59;;;7.78;89.41
62011;BME280;47967;51.756;10.174;2023-04-15T08:28:37;98948.91;;;7.88;89.68
62011;BME280;47967;51.756;10.174;2023-04-15T08:32:41;98953.31;;;8.15;89.74
62011;BME280;47967;51.756;10.174;2023-04-15T08:36:45;98955.75;;;8.04;89.01
62011;BME280;47967;51.756;10.174;2023-04-15T08:40:47;98964.41;;;7.92;89.10
62011;BME280;47967;51.756;10.174;2023-04-15T08:44:50;98954.28;;;7.88;89.62
62011;BME280;47967;51.756;10.174;2023-04-15T08:48:54;98961.53;;;8.00;89.32
62011;BME280;47967;51.756;10.174;2023-04-15T08:52:59;98959.50;;;8.16;89.13
62011;BME280;47967;51.756;10.174;2023-04-15T08:57:02;98955.97;;;8.22;88.70
62011;BME280;47967;51.756;10.174;2023-04-15T09:01:04;98959.94;;;8.33;88.90
62011;BME280;47967;51.756;10.174;2023-04-15T09:05:07;98967.00;;;8.47;87.73
62011;BME280;47967;51.756;10.174;2023-04-15T09:09:12;98967.59;;;8.43;87.66
62011;BME280;47967;51.756;10.174;2023-04-15T09:13:15;98963.25;;;8.35;87.37
62011;BME280;47967;51.756;10.174;2023-04-15T09:17:19;98972.94;;;8.29;87.63
62011;BME280;47967;51.756;10.174;2023-04-15T09:21:22;98942.94;;;7.99;87.84
62011;BME280;47967;51.756;10.174;2023-04-15T09:25:28;98964.88;;;8.23;88.15
62011;BME280;47967;51.756;10.174;2023-04-15T09:29:33;98960.56;;;8.35;87.72
62011;BME280;47967;51.756;10.174;2023-04-15T09:33:52;98966.13;;;8.40;87.31
62011;BME280;47967;51.756;10.174;2023-04-15T09:38:02;98975.25;;;8.46;86.97
62011;BME280;47967;51.756;10.174;2023-04-15T09:42:06;98991.81;;;8.56;86.40
62011;BME280;47967;51.756;10.174;2023-04-15T09:46:09;98986.22;;;8.58;85.99
62011;BME280;47967;51.756;10.174;2023-04-15T09:50:11;98983.13;;;8.61;85.94
62011;BME280;47967;51.756;10.174;2023-04-15T09:54:18;98982.09;;;8.75;86.41
62011;BME280;47967;51.756;10.174;2023-04-15T09:58:23;98994.72;;;8.75;85.99
62011;BME280;47967;51.756;10.174;2023-04-15T10:02:27;98987.06;;;8.85;86.19
62011;BME280;47967;51.756;10.174;2023-04-15T10:06:32;98997.41;;;8.81;85.45
62011;BME280;47967;51.756;10.174;2023-04-15T10:10:36;99001.75;;;8.89;85.90
62011;BME280;47967;51.756;10.174;2023-04-15T10:14:41;99003.19;;;8.92;85.69
62011;BME280;47967;51.756;10.174;2023-04-15T10:18:45;99007.13;;;8.76;85.82
62011;BME280;47967;51.756;10.174;2023-04-15T10:22:50;99015.38;;;8.54;86.80
62011;BME280;47967;51.756;10.174;2023-04-15T10:26:53;99013.53;;;8.68;87.75
62011;BME280;47967;51.756;10.174;2023-04-15T10:30:57;99015.81;;;8.64;87.66
62011;BME280;47967;51.756;10.174;2023-04-15T10:35:00;99010.81;;;8.41;88.57
62011;BME280;47967;51.756;10.174;2023-04-15T10:39:39;99026.69;;;8.29;89.49
62011;BME280;47967;51.756;10.174;2023-04-15T10:43:54;99034.34;;;8.26;89.35
62011;BME280;47967;51.756;10.174;2023-04-15T10:48:01;99034.97;;;8.28;90.00
62011;BME280;47967;51.756;10.174;2023-04-15T10:52:07;99030.22;;;8.43;90.26
62011;BME280;47967;51.756;10.174;2023-04-15T10:56:11;99026.31;;;8.32;90.01
62011;BME280;47967;51.756;10.174;2023-04-15T11:00:15;99020.50;;;8.36;90.73
62011;BME280;47967;51.756;10.174;2023-04-15T11:04:53;99018.00;;;8.27;90.79
62011;BME280;47967;51.756;10.174;2023-04-15T11:08:57;99020.69;;;8.21;91.43
62011;BME280;47967;51.756;10.174;2023-04-15T11:13:15;99035.88;;;8.69;91.11
62011;BME280;47967;51.756;10.174;2023-04-15T11:17:26;99030.84;;;8.45;91.34
62011;BME280;47967;51.756;10.174;2023-04-15T11:21:29;99035.66;;;8.63;91.16
62011;BME280;47967;51.756;10.174;2023-04-15T11:25:33;99040.22;;;8.56;90.93
62011;BME280;47967;51.756;10.174;2023-04-15T11:29:39;99042.09;;;8.69;90.75
62011;BME280;47967;51.756;10.174;2023-04-15T11:33:45;99042.28;;;8.47;91.22
62011;BME280;47967;51.756;10.174;2023-04-15T11:37:49;99044.34;;;8.59;91.30
62011;BME280;47967;51.756;10.174;2023-04-15T11:41:51;99042.91;;;8.63;92.17
62011;BME280;47967;51.756;10.174;2023-04-15T11:45:57;99048.47;;;8.61;91.76
62011;BME280;47967;51.756;10.174;2023-04-15T11:50:13;99047.06;;;8.86;91.00
62011;BME280;47967;51.756;10.174;2023-04-15T11:54:18;99063.63;;;8.83;90.73
62011;BME280;47967;51.756;10.174;2023-04-15T11:58:22;99057.19;;;8.97;90.86
62011;BME280;47967;51.756;10.174;2023-04-15T12:02:31;99073.31;;;8.97;90.42
62011;BME280;47967;51.756;10.174;2023-04-15T12:06:33;99079.09;;;8.60;91.43
62011;BME280;47967;51.756;10.174;2023-04-15T12:10:37;99077.66;;;8.64;92.71
62011;BME280;47967;51.756;10.174;2023-04-15T12:14:40;99086.56;;;8.78;92.41
62011;BME280;47967;51.756;10.174;2023-04-15T12:18:45;99089.25;;;8.92;91.81
62011;BME280;47967;51.756;10.174;2023-04-15T12:22:48;99087.59;;;8.91;91.32
62011;BME280;47967;51.756;10.174;2023-04-15T12:26:52;99108.94;;;9.12;91.35
62011;BME280;47967;51.756;10.174;2023-04-15T12:30:56;99105.19;;;8.93;90.60
62011;BME280;47967;51.756;10.174;2023-04-15T12:35:00;99109.78;;;9.06;90.66
62011;BME280;47967;51.756;10.174;2023-04-15T12:39:03;99111.81;;;9.18;90.96
62011;BME280;47967;51.756;10.174;2023-04-15T12:43:06;99116.19;;;9.12;90.55
62011;BME280;47967;51.756;10.174;2023-04-15T12:47:09;99133.38;;;9.24;90.44
62011;BME280;47967;51.756;10.174;2023-04-15T12:51:14;99127.34;;;9.49;90.20
62011;BME280;47967;51.756;10.174;2023-04-15T12:55:16;99127.78;;;9.39;89.13
62011;BME280;47967;51.756;10.174;2023-04-15T12:59:19;99126.28;;;9.64;88.76
62011;BME280;47967;51.756;10.174;2023-04-15T13:03:22;99122.38;;;9.59;88.23
62011;BME280;47967;51.756;10.174;2023-04-15T13:07:26;99129.38;;;9.81;88.05
62011;BME280;47967;51.756;10.174;2023-04-15T13:11:29;99125.25;;;9.78;88.28
62011;BME280;47967;51.756;10.174;2023-04-15T13:15:34;99143.66;;;9.81;87.89
62011;BME280;47967;51.756;10.174;2023-04-15T13:19:37;99147.19;;;9.82;87.75
62011;BME280;47967;51.756;10.174;2023-04-15T13:23:41;99149.81;;;10.02;87.78
62011;BME280;47967;51.756;10.174;2023-04-15T13:27:44;99162.50;;;10.01;87.23
62011;BME280;47967;51.756;10.174;2023-04-15T13:31:46;99157.09;;;10.01;87.46
62011;BME280;47967;51.756;10.174;2023-04-15T13:35:49;99170.59;;;9.88;87.40
62011;BME280;47967;51.756;10.174;2023-04-15T13:39:53;99164.38;;;9.94;87.86
62011;BME280;47967;51.756;10.174;2023-04-15T13:43:56;99159.56;;;10.09;87.79
62011;BME280;47967;51.756;10.174;2023-04-15T13:47:59;99168.91;;;9.93;88.02
62011;BME280;47967;51.756;10.174;2023-04-15T13:52:01;99168.69;;;10.08;88.09
62011;BME280;47967;51.756;10.174;2023-04-15T13:56:06;99174.25;;;10.14;88.33
62011;BME280;47967;51.756;10.174;2023-04-15T14:00:10;99168.00;;;10.27;87.93
62011;BME280;47967;51.756;10.174;2023-04-15T14:04:13;99179.66;;;10.07;88.60
62011;BME280;47967;51.756;10.174;2023-04-15T14:08:16;99180.50;;;10.07;89.36
62011;BME280;47967;51.756;10.174;2023-04-15T14:12:20;99186.31;;;10.11;89.54
62011;BME280;47967;51.756;10.174;2023-04-15T14:16:22;99198.53;;;10.07;89.25
62011;BME280;47967;51.756;10.174;2023-04-15T14:20:25;99200.84;;;9.97;89.58
62011;BME280;47967;51.756;10.174;2023-04-15T14:24:27;99209.31;;;10.07;90.17
62011;BME280;47967;51.756;10.174;2023-04-15T14:28:31;99201.66;;;9.97;90.06
62011;BME280;47967;51.756;10.174;2023-04-15T14:32:34;99219.06;;;10.15;89.58
62011;BME280;47967;51.756;10.174;2023-04-15T14:36:36;99221.34;;;10.11;88.64
62011;BME280;47967;51.756;10.174;2023-04-15T14:40:40;99222.13;;;10.32;87.75
62011;BME280;47967;51.756;10.174;2023-04-15T14:44:45;99232.69;;;10.33;87.18
62011;BME280;47967;51.756;10.174;2023-04-15T14:48:48;99240.81;;;10.40;86.88
62011;BME280;47967;51.756;10.174;2023-04-15T14:52:50;99248.19;;;10.58;86.86
62011;BME280;47967;51.756;10.174;2023-04-15T14:56:53;99253.22;;;10.34;88.08
62011;BME280;47967;51.756;10.174;2023-04-15T15:00:57;99251.59;;;10.27;88.95
62011;BME280;47967;51.756;10.174;2023-04-15T15:05:00;99251.59;;;10.40;88.47
62011;BME280;47967;51.756;10.174;2023-04-15T15:09:03;99263.59;;;10.44;88.52
62011;BME280;47967;51.756;10.174;2023-04-15T15:13:07;99272.13;;;10.14;88.97
62011;BME280;47967;51.756;10.174;2023-04-15T15:17:11;99273.38;;;10.18;89.59
62011;BME280;47967;51.756;10.174;2023-04-15T15:21:14;99277.75;;;10.19;90.20
62011;BME280;47967;51.756;10.174;2023-04-15T15:25:17;99270.03;;;10.30;89.69
62011;BME280;47967;51.756;10.174;2023-04-15T15:29:19;99269.81;;;10.31;89.66
62011;BME280;47967;51.756;10.174;2023-04-15T15:33:23;99279.59;;;10.39;89.18
62011;BME280;47967;51.756;10.174;2023-04-15T15:37:26;99279.59;;;10.39;89.07
62011;BME280;47967;51.756;10.174;2023-04-15T15:41:29;99284.97;;;10.52;88.70
62011;BME280;47967;51.756;10.174;2023-04-15T15:45:33;99273.31;;;10.59;88.79
62011;BME280;47967;51.756;10.174;2023-04-15T15:49:38;99280.38;;;10.53;88.65
62011;BME280;47967;51.756;10.174;2023-04-15T15:53:41;99286.63;;;10.53;88.93
62011;BME280;47967;51.756;10.174;2023-04-15T15:57:45;99292.97;;;10.79;88.49
62011;BME280;47967;51.756;10.174;2023-04-15T16:01:47;99286.53;;;10.80;88.07
62011;BME280;47967;51.756;10.174;2023-04-15T16:05:52;99292.97;;;10.72;88.17
62011;BME280;47967;51.756;10.174;2023-04-15T16:09:54;99293.78;;;10.80;87.82
62011;BME280;47967;51.756;10.174;2023-04-15T16:13:57;99300.25;;;10.72;87.91
62011;BME280;47967;51.756;10.174;2023-04-15T16:17:59;99305.59;;;10.85;87.82
62011;BME280;47967;51.756;10.174;2023-04-15T16:22:03;99308.31;;;10.79;87.92
62011;BME280;47967;51.756;10.174;2023-04-15T16:26:06;99312.25;;;10.76;88.24
62011;BME280;47967;51.756;10.174;2023-04-15T16:30:10;99315.59;;;10.71;88.22
62011;BME280;47967;51.756;10.174;2023-04-15T16:34:13;99314.38;;;10.61;88.82
62011;BME280;47967;51.756;10.174;2023-04-15T16:38:17;99319.41;;;10.57;89.47
62011;BME280;47967;51.756;10.174;2023-04-15T16:42:20;99328.91;;;10.66;88.97
62011;BME280;47967;51.756;10.174;2023-04-15T16:46:22;99332.81;;;10.77;89.12
62011;BME280;47967;51.756;10.174;2023-04-15T16:50:25;99335.88;;;10.87;88.54
62011;BME280;47967;51.756;10.174;2023-04-15T16:54:29;99343.56;;;10.91;88.43
62011;BME280;47967;51.756;10.174;2023-04-15T16:58:33;99340.25;;;10.88;88.23
62011;BME280;47967;51.756;10.174;2023-04-15T17:02:36;99341.53;;;10.72;88.74
62011;BME280;47967;51.756;10.174;2023-04-15T17:06:39;99345.31;;;10.58;89.28
62011;BME280;47967;51.756;10.174;2023-04-15T17:10:43;99357.53;;;10.61;89.83
62011;BME280;47967;51.756;10.174;2023-04-15T17:14:45;99359.00;;;10.56;90.10
62011;BME280;47967;51.756;10.174;2023-04-15T17:18:48;99372.09;;;10.60;90.28
62011;BME280;47967;51.756;10.174;2023-04-15T17:22:51;99370.22;;;10.67;90.25
62011;BME280;47967;51.756;10.174;2023-04-15T17:26:55;99374.38;;;10.56;90.57
62011;BME280;47967;51.756;10.174;2023-04-15T17:30:58;99380.56;;;10.70;90.43
62011;BME280;47967;51.756;10.174;2023-04-15T17:35:01;99381.78;;;10.74;90.32
62011;BME280;47967;51.756;10.174;2023-04-15T17:39:06;99381.16;;;10.85;89.76
62011;BME280;47967;51.756;10.174;2023-04-15T17:43:10;99387.38;;;10.93;89.59
62011;BME280;47967;51.756;10.174;2023-04-15T17:47:12;99395.03;;;10.96;89.34
62011;BME280;47967;51.756;10.174;2023-04-15T17:51:15;99391.94;;;10.99;88.92
62011;BME280;47967;51.756;10.174;2023-04-15T17:55:17;99402.91;;;10.97;89.35
62011;BME280;47967;51.756;10.174;2023-04-15T17:59:23;99416.41;;;10.97;89.18
62011;BME280;47967;51.756;10.174;2023-04-15T18:03:26;99414.38;;;10.86;89.65
62011;BME280;47967;51.756;10.174;2023-04-15T18:07:29;99421.44;;;10.87;89.88
62011;BME280;47967;51.756;10.174;2023-04-15T18:11:32;99421.03;;;10.83;90.64
62011;BME280;47967;51.756;10.174;2023-04-15T18:15:35;99427.03;;;10.79;91.22
62011;BME280;47967;51.756;10.174;2023-04-15T18:19:38;99428.91;;;10.71;91.78
62011;BME280;47967;51.756;10.174;2023-04-15T18:23:41;99431.84;;;10.70;92.07
62011;BME280;47967;51.756;10.174;2023-04-15T18:27:43;99439.72;;;10.71;92.31
62011;BME280;47967;51.756;10.174;2023-04-15T18:31:47;99445.75;;;10.80;91.54
62011;BME280;47967;51.756;10.174;2023-04-15T18:35:50;99434.13;;;10.73;91.80
62011;BME280;47967;51.756;10.174;2023-04-15T18:39:52;99452.81;;;10.61;91.72
62011;BME280;47967;51.756;10.174;2023-04-15T18:43:55;99445.53;;;10.75;91.44
62011;BME280;47967;51.756;10.174;2023-04-15T18:47:59;99458.38;;;10.80;91.15
62011;BME280;47967;51.756;10.174;2023-04-15T18:52:01;99461.09;;;10.86;90.45
62011;BME280;47967;51.756;10.174;2023-04-15T18:56:05;99478.72;;;10.96;89.42
62011;BME280;47967;51.756;10.174;2023-04-15T19:00:08;99479.78;;;10.88;88.89
62011;BME280;47967;51.756;10.174;2023-04-15T19:04:12;99486.59;;;10.97;88.53
62011;BME280;47967;51.756;10.174;2023-04-15T19:08:15;99495.31;;;10.99;88.08
62011;BME280;47967;51.756;10.174;2023-04-15T19:12:18;99503.63;;;11.04;87.61
62011;BME280;47967;51.756;10.174;2023-04-15T19:16:20;99506.53;;;11.10;87.07
62011;BME280;47967;51.756;10.174;2023-04-15T19:20:24;99508.59;;;11.08;86.97
62011;BME280;47967;51.756;10.174;2023-04-15T19:24:27;99526.47;;;11.02;86.92
62011;BME280;47967;51.756;10.174;2023-04-15T19:28:33;99527.72;;;11.06;87.29
62011;BME280;47967;51.756;10.174;2023-04-15T19:32:35;99525.84;;;11.07;87.47
62011;BME280;47967;51.756;10.174;2023-04-15T19:36:39;99534.34;;;11.10;87.51
62011;BME280;47967;51.756;10.174;2023-04-15T19:40:42;99537.50;;;11.07;87.42
62011;BME280;47967;51.756;10.174;2023-04-15T19:44:44;99537.69;;;11.12;87.42
62011;BME280;47967;51.756;10.174;2023-04-15T19:48:47;99541.00;;;11.08;87.16
62011;BME280;47967;51.756;10.174;2023-04-15T19:52:51;99546.38;;;11.01;87.60
62011;BME280;47967;51.756;10.174;2023-04-15T19:56:53;99547.22;;;10.95;87.95
62011;BME280;47967;51.756;10.174;2023-04-15T20:00:56;99543.94;;;10.93;88.28
62011;BME280;47967;51.756;10.174;2023-04-15T20:04:59;99550.78;;;10.95;88.95
62011;BME280;47967;51.756;10.174;2023-04-15T20:09:03;99553.88;;;10.99;88.96
62011;BME280;47967;51.756;10.174;2023-04-15T20:13:07;99559.69;;;10.96;89.28
62011;BME280;47967;51.756;10.174;2023-04-15T20:17:10;99550.97;;;11.00;89.02
62011;BME280;47967;51.756;10.174;2023-04-15T20:21:12;99560.31;;;11.04;88.98
62011;BME280;47967;51.756;10.174;2023-04-15T20:25:16;99559.50;;;11.04;88.87
62011;BME280;47967;51.756;10.174;2023-04-15T20:29:19;99553.66;;;11.14;89.17
62011;BME280;47967;51.756;10.174;2023-04-15T20:33:21;99566.97;;;10.95;89.70
62011;BME280;47967;51.756;10.174;2023-04-15T20:37:26;99568.41;;;10.98;89.40
62011;BME280;47967;51.756;10.174;2023-04-15T20:41:31;99571.31;;;11.03;89.04
62011;BME280;47967;51.756;10.174;2023-04-15T20:45:33;99574.63;;;10.98;89.34
62011;BME280;47967;51.756;10.174;2023-04-15T20:49:38;99571.53;;;11.01;89.35
62011;BME280;47967;51.756;10.174;2023-04-15T20:53:41;99575.06;;;11.02;89.16
62011;BME280;47967;51.756;10.174;2023-04-15T20:57:45;99580.66;;;11.00;89.01
